AirNav   Phillips 66 Aviation Fuel
 
 334 users online  

U61 Twin Bridges Airport
Ketchum, Idaho, USA

GOING TO KETCHUM?


FAA INFORMATION EFFECTIVE 08 NOVEMBER 2018

Location

FAA Identifier: U61
Lat/Long: 43-56-37.3000N / 114-06-36.9000W
43-56.621667N / 114-06.615000W
43.9436944 / -114.1102500
(estimated)
Elevation: 6900 ft. / 2103 m (estimated)
Variation: 17E (1985)
From city: 22 miles NE of KETCHUM, ID
Time zone: UTC -7 (UTC -6 during Daylight Saving Time)
Zip code: 83251

Airport Operations

Airport use: Open to the public
Activation date: 04/1956
Control tower: no
ARTCC: SALT LAKE CITY CENTER
FSS: BOISE FLIGHT SERVICE STATION
NOTAMs facility: BOI (NOTAM-D service available)
Attendance: UNATNDD
Wind indicator: yes
Segmented circle: yes

Airport Communications

CTAF: 122.9

Nearby radio navigation aids

NDB name  Hdg/Dist  Freq  Var  ID
HAILEY356/37.322013EHLE .... .-.. .

Airport Services

Parking: tiedowns
Airframe service: NONE
Powerplant service: NONE
Bottled oxygen: NONE
Bulk oxygen: NONE

Runway Information

Runway 18/36

Dimensions: 4450 x 100 ft. / 1356 x 30 m
Surface: turf/dirt, in fair condition
Runway edge markings: RY 18/36 EDGES & THLDS MARKED WITH WHITE ROCKS.
RUNWAY 18  RUNWAY 36
Latitude: 43-56.972500N43-56.271167N
Longitude: 114-06.468500W114-06.760833W
Elevation: 6899.0 ft.6900.0 ft.
Traffic pattern: leftleft
Runway heading: 180 magnetic, 197 true000 magnetic, 017 true
Obstructions: 430 ft. hill, 1300 ft. from runway, 200 ft. right of centerline, 3:1 slope to clear
ADDNL OBSTN +300 MTN 1300 FT FM THLD ON CNTRLN; 14 FT ROAD 100 FT FM THLD ON CNTRLN.
2 ft. berm, 30 ft. left and right of centerline

Airport Ownership and Management from official FAA records

Ownership: Publicly-owned
Owner: STATE OF ID, ITD DIV OF AERO
P.O. BOX 7129
BOISE, ID 83707-1129
Phone 208-334-8775
Manager: DIV ADMIN
P.O. BOX 7129
BOISE, ID 83707-1129
Phone 208-334-8775

Airport Operational Statistics

Aircraft operations: avg 67/month *
75% transient general aviation
25% air taxi
* for 12-month period ending 23 September 2016

Additional Remarks

NO WINTER MAINT.
ARPT LCTD IN HIGH MTN VALLEY SURROUNDED BY HIGH MTNS.
BE ALERT ARPT SUBJECT TO ONGOING DAMAGE BY LIVESTOCK; GROUND VEHICLES AND RODENTS.
RY 18/36 -1 FT DITCH & +1 FT - 2 FT DIRT BERM ENTIRE PERIMETER OF RY.

Instrument Procedures

There are no published instrument procedures at U61.

Some nearby airports with instrument procedures:

KSUN - Friedman Memorial Airport (28 nm S)
KAOC - Arco-Butte County Airport (39 nm SE)
KGNG - Gooding Municipal Airport (68 nm SW)
KSMN - Lemhi County Airport (71 nm N)
KJER - Jerome County Airport (75 nm S)
 
Loc | Ops | Rwys | IFR | FBO | Links
Com | Nav | Svcs | Stats | Notes


 
Area around U61 (Twin Bridges Airport)
 
Road maps at: MapQuest Bing Google
 
Aerial photo
WARNING: Photo may not be current or correct
Aerial photo of U61 (Twin Bridges Airport)
Taken in the Fall of 2007

Do you have a better or more recent aerial photo of Twin Bridges Airport that you would like to share? If so, please send us your photo.

 
Sectional chart

 
Airport distance calculator
Flying to Twin Bridges Airport? Find the distance to fly.

From to U61

Sunrise and sunset
Times for 17-Nov-2018
 Local
(UTC-7)
 Zulu
(UTC)
Morning civil twilight07:0414:04
Sunrise07:3514:35
Sunset17:0800:08
Evening civil twilight17:3900:39

Current date and time
Zulu (UTC)  17-Nov-2018 09:59:20
Local (UTC-7)  17-Nov-2018 02:59:20
 
METAR
KSUN 
28nm S 
170935Z AUTO 13005KT 10SM OVC021 01/00 A3011 RMK AO2
KLLJ 
35nm N 
170855Z AUTO 34008KT 10SM CLR 00/M07 A3013 RMK AO2 SLP196 T00001072 51011
KSNT 
38nm W 
170951Z AUTO 29003KT M03/M07 A3010 RMK AO1 SLP166 T10281067
TAF
KSUN 
28nm S 
170520Z 1706/1812 15007KT P6SM VCSH SCT030 BKN090 FM170700 VRB06KT 6SM -SN SCT015 OVC035 FM171100 VRB06KT P6SM SCT030 BKN050 FM171700 18006KT P6SM SCT050 FM180300 33010KT P6SM SKC AMD LTD TO CLD VIS AND WIND TIL 171300
NOTAMs
Click for the latest NOTAMs
NOTAMs are issued by the DoD/FAA and will open in a separate window not controlled by AirNav.

 

 
 

Would you like to see your business listed on this page?

 If your business provides an interesting product or service to pilots, flight crews, aircraft, or users of the Twin Bridges Airport, you should consider listing it here.  To start the listing process, click on the button below
 
Add a business
 

Other Pages about Twin Bridges Airport

Update a link
 
Copyright © AirNav, LLC. All rights reserved. Privacy Policy  Contact